createdAt,value
2019-01-12T00:00:23.210Z,0.70
2019-01-12T00:02:52.295Z,0.60
2019-01-12T00:05:21.570Z,0.47
2019-01-12T00:07:50.893Z,0.70
2019-01-12T00:10:20.037Z,0.80
2019-01-12T00:12:49.463Z,0.60
2019-01-12T00:15:18.648Z,0.60
2019-01-12T00:17:47.507Z,0.53
2019-01-12T00:20:16.453Z,0.70
2019-01-12T00:22:45.803Z,0.50
2019-01-12T00:25:14.684Z,0.70
2019-01-12T00:27:43.439Z,0.50
2019-01-12T00:30:14.474Z,0.70
2019-01-12T00:32:43.466Z,0.67
2019-01-12T00:35:12.266Z,0.97
2019-01-12T00:37:41.661Z,1.00
2019-01-12T00:40:10.608Z,0.70
2019-01-12T00:42:39.690Z,0.50
2019-01-12T00:45:11.824Z,0.70
2019-01-12T00:47:41.479Z,0.70
2019-01-12T00:50:13.608Z,0.57
2019-01-12T00:52:42.581Z,0.57
2019-01-12T00:55:11.726Z,0.70
2019-01-12T00:57:40.864Z,0.50
2019-01-12T01:00:13.004Z,0.83
2019-01-12T01:02:42.105Z,0.50
2019-01-12T01:05:11.293Z,0.53
2019-01-12T01:07:40.470Z,0.67
2019-01-12T01:10:12.570Z,0.53
2019-01-12T01:12:41.582Z,0.70
2019-01-12T01:15:11.547Z,0.50
2019-01-12T01:17:40.934Z,0.70
2019-01-12T01:20:12.067Z,0.70
2019-01-12T01:22:41.157Z,0.70
2019-01-12T01:25:10.990Z,0.80
2019-01-12T01:27:40.039Z,0.87
2019-01-12T01:30:30.206Z,0.60
2019-01-12T01:32:59.228Z,0.60
2019-01-12T01:35:28.157Z,0.60
2019-01-12T01:37:57.197Z,0.60
2019-01-12T01:40:26.137Z,0.53
2019-01-12T01:42:55.284Z,0.67
2019-01-12T01:45:24.317Z,0.80
2019-01-12T01:47:53.234Z,0.80
2019-01-12T01:50:22.399Z,0.60
2019-01-12T01:52:54.334Z,0.60
2019-01-12T01:55:23.444Z,0.57
2019-01-12T01:57:52.370Z,0.50
2019-01-12T02:00:22.949Z,0.70
2019-01-12T02:02:52.090Z,0.60
2019-01-12T02:05:21.164Z,0.67
2019-01-12T02:07:50.445Z,0.90
2019-01-12T02:10:21.796Z,0.60
2019-01-12T02:12:53.838Z,0.63
2019-01-12T02:15:22.892Z,0.80
2019-01-12T02:17:51.725Z,0.60
2019-01-12T02:20:21.062Z,0.73
2019-01-12T02:22:50.101Z,0.70
2019-01-12T02:25:19.521Z,0.87
2019-01-12T02:27:48.918Z,0.60
2019-01-12T02:30:20.985Z,0.87
2019-01-12T02:32:50.574Z,1.17
2019-01-12T02:35:20.403Z,0.70
2019-01-12T02:37:49.700Z,0.70
2019-01-12T02:40:19.214Z,0.70
2019-01-12T02:42:48.036Z,0.67
2019-01-12T02:45:21.047Z,0.50
2019-01-12T02:47:50.025Z,0.90
2019-01-12T02:50:19.322Z,0.70
2019-01-12T02:52:49.939Z,0.50
2019-01-12T02:55:21.630Z,0.60
2019-01-12T02:57:52.105Z,0.77
2019-01-12T03:00:21.525Z,0.90
2019-01-12T03:02:51.023Z,0.77
2019-01-12T03:05:20.516Z,0.60
2019-01-12T03:07:49.788Z,1.10
2019-01-12T03:10:19.360Z,0.63
2019-01-12T03:12:48.935Z,0.63
2019-01-12T03:15:22.222Z,0.53
2019-01-12T03:17:52.794Z,0.93
2019-01-12T03:20:21.792Z,0.77
2019-01-12T03:22:50.857Z,0.43
2019-01-12T03:25:20.306Z,0.93
2019-01-12T03:27:49.545Z,0.60
2019-01-12T03:30:21.860Z,0.83
2019-01-12T03:32:51.057Z,0.83
2019-01-12T03:35:22.880Z,0.80
2019-01-12T03:37:52.412Z,0.60
2019-01-12T03:40:21.684Z,0.67
2019-01-12T03:42:50.970Z,0.40
2019-01-12T03:45:20.509Z,0.80
2019-01-12T03:47:50.915Z,0.87
2019-01-12T03:50:25.329Z,0.50
2019-01-12T03:52:54.272Z,0.70
2019-01-12T03:55:25.836Z,0.60
2019-01-12T03:57:53.745Z,0.63
2019-01-12T04:00:25.622Z,0.63
2019-01-12T04:02:54.499Z,0.70
2019-01-12T04:05:23.219Z,0.90
2019-01-12T04:07:52.204Z,0.40
2019-01-12T04:10:24.227Z,0.57
2019-01-12T04:12:53.229Z,1.10
2019-01-12T04:15:22.035Z,0.60
2019-01-12T04:18:11.892Z,0.80
2019-01-12T04:20:40.810Z,0.83
2019-01-12T04:23:09.655Z,0.60
2019-01-12T04:25:38.957Z,0.57
2019-01-12T04:28:08.205Z,0.70
2019-01-12T04:30:38.204Z,0.70
2019-01-12T04:33:07.397Z,0.70
2019-01-12T04:35:36.328Z,0.70
2019-01-12T04:38:05.767Z,0.63
2019-01-12T04:40:35.155Z,0.80
2019-01-12T04:43:04.326Z,0.90
2019-01-12T04:45:33.318Z,0.63
2019-01-12T04:48:02.303Z,0.83
2019-01-12T04:50:31.162Z,0.60
2019-01-12T04:53:00.147Z,1.17
2019-01-12T04:55:29.038Z,0.80
2019-01-12T04:57:58.476Z,0.57
2019-01-12T05:00:27.546Z,0.50
2019-01-12T05:02:56.584Z,0.53
2019-01-12T05:05:25.459Z,0.83
2019-01-12T05:07:54.449Z,0.70
2019-01-12T05:10:23.811Z,0.70
2019-01-12T05:12:52.750Z,1.00
2019-01-12T05:15:21.759Z,0.80
2019-01-12T05:17:51.183Z,0.67
2019-01-12T05:20:20.742Z,0.80
2019-01-12T05:22:50.200Z,0.63
2019-01-12T05:25:20.065Z,0.80
2019-01-12T05:27:49.602Z,0.70
2019-01-12T05:30:20.195Z,0.67
2019-01-12T05:32:49.730Z,0.73
2019-01-12T05:35:19.153Z,0.93
2019-01-12T05:37:48.306Z,0.60
2019-01-12T05:40:17.807Z,0.50
2019-01-12T05:42:46.792Z,0.80
2019-01-12T05:45:15.744Z,0.80
2019-01-12T05:47:45.045Z,0.60
2019-01-12T05:50:14.368Z,0.60
2019-01-12T05:52:43.245Z,0.70
2019-01-12T05:55:12.449Z,0.70
2019-01-12T05:57:41.348Z,0.73
2019-01-12T06:00:16.326Z,0.60
2019-01-12T06:02:45.358Z,0.70
2019-01-12T06:05:14.625Z,0.70
2019-01-12T06:07:43.884Z,0.70
2019-01-12T06:10:14.797Z,0.50
2019-01-12T06:12:44.156Z,0.60
2019-01-12T06:15:14.685Z,0.87
2019-01-12T06:17:43.579Z,0.57
2019-01-12T06:20:14.594Z,0.80
2019-01-12T06:22:43.630Z,0.70
2019-01-12T06:25:12.787Z,0.80
2019-01-12T06:27:41.858Z,0.90
2019-01-12T06:30:20.189Z,0.70
2019-01-12T06:32:49.535Z,0.60
2019-01-12T06:35:18.955Z,0.80
2019-01-12T06:37:47.986Z,0.80
2019-01-12T06:40:17.364Z,0.80
2019-01-12T06:42:46.359Z,0.73
2019-01-12T06:45:16.839Z,0.67
2019-01-12T06:47:45.817Z,0.80
2019-01-12T06:50:17.254Z,0.80
2019-01-12T06:52:46.379Z,0.80
2019-01-12T06:55:15.641Z,0.70
2019-01-12T06:57:44.625Z,0.50
2019-01-12T07:00:20.897Z,0.70
2019-01-12T07:02:50.293Z,0.73
2019-01-12T07:05:19.485Z,0.80
2019-01-12T07:07:49.077Z,0.73
2019-01-12T07:10:18.681Z,0.60
2019-01-12T07:12:47.693Z,0.60
2019-01-12T07:15:16.926Z,0.67
2019-01-12T07:17:45.831Z,0.57
2019-01-12T07:20:16.219Z,0.70
2019-01-12T07:22:46.343Z,0.63
2019-01-12T07:25:15.437Z,0.80
2019-01-12T07:27:44.488Z,0.60
2019-01-12T07:30:19.175Z,0.60
2019-01-12T07:32:48.179Z,0.57
2019-01-12T07:35:17.235Z,0.83
2019-01-12T07:37:46.576Z,0.70
2019-01-12T07:40:15.425Z,0.57
2019-01-12T07:42:44.552Z,0.63
2019-01-12T07:45:13.903Z,1.00
2019-01-12T07:47:42.724Z,0.70
2019-01-12T07:50:13.829Z,0.70
2019-01-12T07:53:02.412Z,0.50
2019-01-12T07:55:31.537Z,0.70
2019-01-12T07:58:00.610Z,0.60
2019-01-12T08:00:29.633Z,0.80
2019-01-12T08:02:58.816Z,0.90
2019-01-12T08:05:27.698Z,0.90
2019-01-12T08:07:57.274Z,0.60
2019-01-12T08:10:27.109Z,0.80
2019-01-12T08:12:56.470Z,0.80
2019-01-12T08:15:25.626Z,0.80
2019-01-12T08:17:54.897Z,0.80
2019-01-12T08:20:25.311Z,1.00
2019-01-12T08:22:54.367Z,0.50
2019-01-12T08:25:23.241Z,0.67
2019-01-12T08:27:52.019Z,0.70
2019-01-12T08:30:21.005Z,0.60
2019-01-12T08:32:50.163Z,0.77
2019-01-12T08:35:19.652Z,0.90
2019-01-12T08:37:48.800Z,0.73
2019-01-12T08:40:18.677Z,0.53
2019-01-12T08:42:47.724Z,0.97
2019-01-12T08:45:16.987Z,0.90
2019-01-12T08:47:46.049Z,0.70
2019-01-12T08:50:17.172Z,0.63
2019-01-12T08:52:46.601Z,0.80
2019-01-12T08:55:15.625Z,0.87
2019-01-12T08:57:44.405Z,0.73
2019-01-12T09:00:16.539Z,1.00
2019-01-12T09:02:45.429Z,0.80
2019-01-12T09:05:14.728Z,0.93
2019-01-12T09:07:43.835Z,0.80
2019-01-12T09:10:19.496Z,0.73
2019-01-12T09:12:49.075Z,1.03
2019-01-12T09:15:18.032Z,0.80
2019-01-12T09:17:46.947Z,0.90
2019-01-12T09:20:16.571Z,0.70
2019-01-12T09:22:46.231Z,1.10
2019-01-12T09:25:15.361Z,0.93
2019-01-12T09:27:44.865Z,0.87
2019-01-12T09:30:16.573Z,0.70
2019-01-12T09:32:45.762Z,1.10
2019-01-12T09:35:15.029Z,0.90
2019-01-12T09:37:44.002Z,0.77
2019-01-12T09:40:15.290Z,0.90
2019-01-12T09:42:44.447Z,1.17
2019-01-12T09:45:15.268Z,0.97
2019-01-12T09:47:44.423Z,1.57
2019-01-12T09:50:16.230Z,1.03
2019-01-12T09:52:45.520Z,1.00
2019-01-12T09:55:14.712Z,0.83
2019-01-12T09:57:43.781Z,1.00
2019-01-12T10:00:18.822Z,0.87
2019-01-12T10:02:48.327Z,1.13
2019-01-12T10:05:17.243Z,1.00
2019-01-12T10:07:46.414Z,0.80
2019-01-12T10:10:17.388Z,0.97
2019-01-12T10:12:47.506Z,0.80
2019-01-12T10:15:17.121Z,0.77
2019-01-12T10:17:45.907Z,0.63
2019-01-12T10:20:16.723Z,0.93
2019-01-12T10:22:46.405Z,0.80
2019-01-12T10:25:16.032Z,0.93
2019-01-12T10:27:45.255Z,0.90
2019-01-12T10:30:24.858Z,0.70
2019-01-12T10:32:54.095Z,0.67
2019-01-12T10:35:25.198Z,0.90
2019-01-12T10:37:54.279Z,1.07
2019-01-12T10:40:23.668Z,1.10
2019-01-12T10:42:52.678Z,0.90
2019-01-12T10:45:23.170Z,1.00
2019-01-12T10:47:52.446Z,1.20
2019-01-12T10:50:28.092Z,1.00
2019-01-12T10:52:57.056Z,1.27
2019-01-12T10:55:26.125Z,1.10
2019-01-12T10:57:55.536Z,0.60
2019-01-12T11:00:30.471Z,1.30
2019-01-12T11:03:00.673Z,0.90
2019-01-12T11:05:29.593Z,1.10
2019-01-12T11:07:58.476Z,1.10
2019-01-12T11:10:28.347Z,1.87
2019-01-12T11:12:57.305Z,0.73
2019-01-12T11:15:26.249Z,1.00
2019-01-12T11:17:55.475Z,0.87
2019-01-12T11:20:24.262Z,0.83
2019-01-12T11:22:53.412Z,1.00
2019-01-12T11:25:22.910Z,0.87
2019-01-12T11:27:51.794Z,0.70
2019-01-12T11:30:21.200Z,0.90
2019-01-12T11:32:50.504Z,1.00
2019-01-12T11:35:19.697Z,1.30
2019-01-12T11:37:48.855Z,0.90
2019-01-12T11:40:20.786Z,0.83
2019-01-12T11:42:51.108Z,0.80
2019-01-12T11:45:20.786Z,1.27
2019-01-12T11:47:50.789Z,1.17
2019-01-12T11:50:20.193Z,0.93
2019-01-12T11:52:49.539Z,1.10
2019-01-12T11:55:19.623Z,0.80
2019-01-12T11:57:49.014Z,1.30
2019-01-12T12:00:20.606Z,0.80
2019-01-12T12:02:49.728Z,1.27
2019-01-12T12:05:19.220Z,0.80
2019-01-12T12:07:48.456Z,1.13
2019-01-12T12:10:19.586Z,1.10
2019-01-12T12:12:48.675Z,1.00
2019-01-12T12:15:22.441Z,1.20
2019-01-12T12:17:51.351Z,0.90
2019-01-12T12:20:22.395Z,0.93
2019-01-12T12:22:51.931Z,1.10
2019-01-12T12:25:21.060Z,1.10
2019-01-12T12:27:50.137Z,1.13
2019-01-12T12:30:21.762Z,0.90
2019-01-12T12:32:50.747Z,0.90
2019-01-12T12:35:19.867Z,1.20
2019-01-12T12:37:49.081Z,1.10
2019-01-12T12:40:20.701Z,0.70
2019-01-12T12:42:49.620Z,1.37
2019-01-12T12:45:21.260Z,1.30
2019-01-12T12:47:50.480Z,1.17
2019-01-12T12:50:19.749Z,1.30
2019-01-12T12:52:49.334Z,2.00
2019-01-12T12:55:19.449Z,1.43
2019-01-12T12:57:48.834Z,1.20
2019-01-12T13:00:23.389Z,1.23
2019-01-12T13:02:52.284Z,1.37
2019-01-12T13:05:21.511Z,1.73
2019-01-12T13:07:50.728Z,1.13
2019-01-12T13:10:25.346Z,1.77
2019-01-12T13:12:55.106Z,1.97
2019-01-12T13:15:24.106Z,1.53
2019-01-12T13:17:53.306Z,1.57
2019-01-12T13:20:22.306Z,1.37
2019-01-12T13:22:51.313Z,1.97
2019-01-12T13:25:21.281Z,1.80
2019-01-12T13:27:50.975Z,1.07
2019-01-12T13:30:22.250Z,1.40
2019-01-12T13:32:51.451Z,1.10
2019-01-12T13:35:21.110Z,1.30
2019-01-12T13:37:50.257Z,1.10
2019-01-12T13:40:24.818Z,1.10
2019-01-12T13:42:53.708Z,1.23
2019-01-12T13:45:23.069Z,1.30
2019-01-12T13:47:52.197Z,1.33
2019-01-12T13:50:25.078Z,1.03
2019-01-12T13:52:54.124Z,1.07
2019-01-12T13:55:23.391Z,1.60
2019-01-12T13:57:52.500Z,1.70
2019-01-12T14:00:27.297Z,1.20
2019-01-12T14:02:59.172Z,1.20
2019-01-12T14:05:31.448Z,1.07
2019-01-12T14:08:00.634Z,1.07
2019-01-12T14:10:29.576Z,1.20
2019-01-12T14:12:58.610Z,1.40
2019-01-12T14:15:27.882Z,1.07
2019-01-12T14:17:56.954Z,1.50
2019-01-12T14:20:31.464Z,1.33
2019-01-12T14:23:00.463Z,1.33
2019-01-12T14:25:29.890Z,1.37
2019-01-12T14:27:59.043Z,1.93
2019-01-12T14:30:28.471Z,1.27
2019-01-12T14:32:57.523Z,1.10
2019-01-12T14:35:26.572Z,2.33
2019-01-12T14:37:55.447Z,1.30
2019-01-12T14:40:24.261Z,1.23
2019-01-12T14:42:53.377Z,1.40
2019-01-12T14:45:24.698Z,1.33
2019-01-12T14:47:53.665Z,1.47
2019-01-12T14:50:23.169Z,1.70
2019-01-12T14:52:52.137Z,1.33
2019-01-12T14:55:22.158Z,1.43
2019-01-12T14:57:51.458Z,1.50
2019-01-12T15:00:27.915Z,1.30
2019-01-12T15:02:58.450Z,1.77
2019-01-12T15:05:29.054Z,1.67
2019-01-12T15:07:58.129Z,1.57
2019-01-12T15:10:26.995Z,1.37
2019-01-12T15:12:56.184Z,1.33
2019-01-12T15:15:25.461Z,1.50
2019-01-12T15:17:54.395Z,1.90
2019-01-12T15:20:25.593Z,1.40
2019-01-12T15:22:55.334Z,1.33
2019-01-12T15:25:25.698Z,1.30
2019-01-12T15:27:55.632Z,1.50
2019-01-12T15:30:26.566Z,2.07
2019-01-12T15:32:56.000Z,1.60
2019-01-12T15:35:27.873Z,2.03
2019-01-12T15:37:56.818Z,1.80
2019-01-12T15:40:25.664Z,1.97
2019-01-12T15:42:54.911Z,2.13
2019-01-12T15:45:25.742Z,1.90
2019-01-12T15:47:54.697Z,1.73
2019-01-12T15:50:26.309Z,1.50
2019-01-12T15:52:55.540Z,2.33
2019-01-12T15:55:24.696Z,1.30
2019-01-12T15:57:54.020Z,1.33
2019-01-12T16:00:46.780Z,1.73
2019-01-12T16:03:15.877Z,1.30
2019-01-12T16:05:44.905Z,1.17
2019-01-12T16:08:13.913Z,1.63
2019-01-12T16:10:42.878Z,1.33
2019-01-12T16:13:11.754Z,1.40
2019-01-12T16:15:40.643Z,1.53
2019-01-12T16:18:09.768Z,1.50
2019-01-12T16:20:38.818Z,1.73
2019-01-12T16:23:07.847Z,1.60
2019-01-12T16:25:37.244Z,1.80
2019-01-12T16:28:07.802Z,1.57
2019-01-12T16:30:36.928Z,1.80
2019-01-12T16:33:06.108Z,1.80
2019-01-12T16:35:35.116Z,2.20
2019-01-12T16:38:04.375Z,2.40
2019-01-12T16:40:33.611Z,2.60
2019-01-12T16:43:02.471Z,2.50
2019-01-12T16:45:31.402Z,2.37
2019-01-12T16:48:00.476Z,2.40
2019-01-12T16:50:29.399Z,3.10
2019-01-12T16:52:58.666Z,2.63
2019-01-12T16:55:27.980Z,2.30
2019-01-12T16:57:56.873Z,3.10
2019-01-12T17:00:27.684Z,2.20
2019-01-12T17:02:57.190Z,2.67
2019-01-12T17:05:26.287Z,2.40
2019-01-12T17:07:55.133Z,2.40
2019-01-12T17:10:24.219Z,2.23
2019-01-12T17:12:53.454Z,2.30
2019-01-12T17:15:23.288Z,2.40
2019-01-12T17:17:52.758Z,2.27
2019-01-12T17:20:26.070Z,2.03
2019-01-12T17:22:57.645Z,2.63
2019-01-12T17:25:26.862Z,2.03
2019-01-12T17:27:55.720Z,2.87
2019-01-12T17:30:25.932Z,2.20
2019-01-12T17:32:54.794Z,2.00
2019-01-12T17:35:23.736Z,1.83
2019-01-12T17:37:52.942Z,1.77
2019-01-12T17:40:21.873Z,1.63
2019-01-12T17:42:50.850Z,1.83
2019-01-12T17:45:26.144Z,2.00
2019-01-12T17:47:55.269Z,1.43
2019-01-12T17:50:25.074Z,2.30
2019-01-12T17:52:54.382Z,2.17
2019-01-12T17:55:24.638Z,2.30
2019-01-12T17:57:54.606Z,2.20
2019-01-12T18:00:41.707Z,2.00
2019-01-12T18:03:10.986Z,2.13
2019-01-12T18:05:39.974Z,1.97
2019-01-12T18:08:08.989Z,1.87
2019-01-12T18:10:38.270Z,1.70
2019-01-12T18:13:07.314Z,1.93
2019-01-12T18:15:36.610Z,1.67
2019-01-12T18:18:05.963Z,2.13
2019-01-12T18:20:34.878Z,1.60
2019-01-12T18:23:04.175Z,2.07
2019-01-12T18:25:33.203Z,1.93
2019-01-12T18:28:02.232Z,1.87
2019-01-12T18:30:31.272Z,2.20
2019-01-12T18:33:00.229Z,2.20
2019-01-12T18:35:29.450Z,1.97
2019-01-12T18:37:58.719Z,1.90
2019-01-12T18:40:27.627Z,2.10
2019-01-12T18:42:56.856Z,1.57
2019-01-12T18:45:26.214Z,1.90
2019-01-12T18:47:55.180Z,2.10
2019-01-12T18:50:26.069Z,1.80
2019-01-12T18:52:55.153Z,2.00
2019-01-12T18:55:24.217Z,1.73
2019-01-12T18:57:53.224Z,3.07
2019-01-12T19:00:24.944Z,1.93
2019-01-12T19:02:53.914Z,2.23
2019-01-12T19:05:23.137Z,1.97
2019-01-12T19:07:52.652Z,2.37
2019-01-12T19:10:22.028Z,2.20
2019-01-12T19:12:51.413Z,2.53
2019-01-12T19:15:22.775Z,2.17
2019-01-12T19:17:52.323Z,2.53
2019-01-12T19:20:21.592Z,2.00
2019-01-12T19:22:51.702Z,1.93
2019-01-12T19:25:21.214Z,2.70
2019-01-12T19:27:50.131Z,2.00
2019-01-12T19:30:24.058Z,2.13
2019-01-12T19:32:52.904Z,2.27
2019-01-12T19:35:22.186Z,1.67
2019-01-12T19:37:51.432Z,2.33
2019-01-12T19:40:22.091Z,2.23
2019-01-12T19:42:51.471Z,2.30
2019-01-12T19:45:21.259Z,2.43
2019-01-12T19:47:52.316Z,3.47
2019-01-12T19:50:23.671Z,3.00
2019-01-12T19:52:52.539Z,2.70
2019-01-12T19:55:21.885Z,3.20
2019-01-12T19:57:51.271Z,2.83
2019-01-12T20:00:25.878Z,2.37
2019-01-12T20:02:55.161Z,2.10
2019-01-12T20:05:24.199Z,2.30
2019-01-12T20:07:53.198Z,2.00
2019-01-12T20:10:22.443Z,2.10
2019-01-12T20:12:51.909Z,2.10
2019-01-12T20:15:23.223Z,1.53
2019-01-12T20:17:52.463Z,2.10
2019-01-12T20:20:21.863Z,1.87
2019-01-12T20:22:51.086Z,1.77
2019-01-12T20:25:22.678Z,1.90
2019-01-12T20:27:51.698Z,1.80
2019-01-12T20:30:38.632Z,1.93
2019-01-12T20:33:16.812Z,1.80
2019-01-12T20:36:19.146Z,1.20
2019-01-12T20:39:22.719Z,2.47
2019-01-12T20:42:06.239Z,2.10
2019-01-12T20:45:08.584Z,2.10
2019-01-12T20:47:55.474Z,3.30
2019-01-12T20:50:30.174Z,3.97
2019-01-12T20:53:13.797Z,2.90
2019-01-12T20:55:51.445Z,3.47
2019-01-12T20:58:26.539Z,3.30
2019-01-12T21:01:17.920Z,3.87
2019-01-12T21:04:12.660Z,3.83
2019-01-12T21:06:53.435Z,3.80
2019-01-12T21:09:40.450Z,3.00
2019-01-12T21:12:45.465Z,2.77
2019-01-12T21:15:17.737Z,2.70
2019-01-12T21:17:46.687Z,3.13
2019-01-12T21:20:15.834Z,2.70
2019-01-12T21:22:44.835Z,3.40
2019-01-12T21:25:13.960Z,3.03
2019-01-12T21:27:43.008Z,2.60
2019-01-12T21:30:18.026Z,3.17
2019-01-12T21:32:47.123Z,3.80
2019-01-12T21:35:16.214Z,2.93
2019-01-12T21:37:45.262Z,3.17
2019-01-12T21:40:14.235Z,2.83
2019-01-12T21:42:43.274Z,3.17
2019-01-12T21:45:14.773Z,2.13
2019-01-12T21:47:44.493Z,2.70
2019-01-12T21:50:15.449Z,2.40
2019-01-12T21:52:44.853Z,2.30
2019-01-12T21:55:13.994Z,2.07
2019-01-12T21:57:42.959Z,2.30
2019-01-12T22:00:17.447Z,2.33
2019-01-12T22:02:46.659Z,2.70
2019-01-12T22:05:15.743Z,2.10
2019-01-12T22:07:45.328Z,2.93
2019-01-12T22:10:19.294Z,2.43
2019-01-12T22:12:47.536Z,2.20
2019-01-12T22:15:16.881Z,2.13
2019-01-12T22:17:45.816Z,2.70
2019-01-12T22:20:17.134Z,2.47
2019-01-12T22:22:46.047Z,2.20
2019-01-12T22:25:15.051Z,2.33
2019-01-12T22:27:44.221Z,2.23
2019-01-12T22:30:18.474Z,2.30
2019-01-12T22:32:47.601Z,2.00
2019-01-12T22:35:17.131Z,2.93
2019-01-12T22:37:45.999Z,4.13
2019-01-12T22:40:20.795Z,2.80
2019-01-12T22:42:50.070Z,3.10
2019-01-12T22:45:19.436Z,2.77
2019-01-12T22:47:48.519Z,2.83
2019-01-12T22:50:17.684Z,2.80
2019-01-12T22:52:46.789Z,2.70
2019-01-12T22:55:15.974Z,3.00
2019-01-12T22:57:45.018Z,3.13
2019-01-12T23:00:26.159Z,2.63
2019-01-12T23:02:55.140Z,2.63
2019-01-12T23:05:23.982Z,3.03
2019-01-12T23:07:53.087Z,2.90
2019-01-12T23:10:22.033Z,2.13
2019-01-12T23:12:51.439Z,3.53
2019-01-12T23:15:20.614Z,3.33
2019-01-12T23:17:49.734Z,2.07
2019-01-12T23:20:18.843Z,2.43
2019-01-12T23:22:47.917Z,2.70
2019-01-12T23:25:17.082Z,3.00
2019-01-12T23:27:45.936Z,2.50
2019-01-12T23:30:16.297Z,2.63
2019-01-12T23:32:45.535Z,2.50
2019-01-12T23:35:14.618Z,2.77
2019-01-12T23:37:43.602Z,2.80
2019-01-12T23:40:15.983Z,2.90
2019-01-12T23:42:45.320Z,2.77
2019-01-12T23:45:15.384Z,2.20
2019-01-12T23:47:44.352Z,2.00
2019-01-12T23:50:14.370Z,2.30
2019-01-12T23:52:43.498Z,2.47
2019-01-12T23:55:12.453Z,2.67
2019-01-12T23:57:41.667Z,2.63
